createdAt,value
2022-12-24T00:01:03.199Z,14.50
2022-12-24T00:06:20.139Z,11.10
2022-12-24T00:11:29.986Z,9.30
2022-12-24T00:16:39.951Z,8.00
2022-12-24T00:21:50.272Z,7.30
2022-12-24T00:27:00.128Z,7.40
2022-12-24T00:32:10.538Z,7.30
2022-12-24T00:37:20.109Z,7.30
2022-12-24T00:42:29.684Z,23.40
2022-12-24T00:47:39.378Z,26.60
2022-12-24T00:52:48.968Z,15.30
2022-12-24T00:57:58.704Z,19.70
2022-12-24T01:03:08.550Z,17.90
2022-12-24T01:08:18.299Z,15.70
2022-12-24T01:13:28.488Z,14.10
2022-12-24T01:18:38.275Z,11.00
2022-12-24T01:23:48.451Z,11.20
2022-12-24T01:28:58.304Z,12.00
2022-12-24T01:34:08.030Z,12.30
2022-12-24T01:39:17.790Z,16.60
2022-12-24T01:44:36.216Z,13.60
2022-12-24T01:49:52.411Z,14.70
2022-12-24T01:55:07.940Z,17.60
2022-12-24T02:00:20.873Z,16.30
2022-12-24T02:05:38.545Z,12.90
2022-12-24T02:10:48.688Z,15.30
2022-12-24T02:16:12.495Z,13.80
2022-12-24T02:21:56.788Z,19.10
2022-12-24T02:27:21.354Z,14.60
2022-12-24T02:32:42.822Z,16.00
2022-12-24T02:37:59.245Z,24.40
2022-12-24T02:43:15.377Z,18.20
2022-12-24T02:48:26.036Z,19.20
2022-12-24T02:53:37.309Z,6.60
2022-12-24T02:59:05.892Z,8.60
2022-12-24T03:04:40.748Z,5.20
2022-12-24T03:10:11.148Z,6.70
2022-12-24T03:15:24.389Z,4.90
2022-12-24T03:20:41.540Z,9.50
2022-12-24T03:25:52.003Z,9.00
2022-12-24T03:31:07.833Z,12.20
2022-12-24T03:36:19.462Z,19.90
2022-12-24T03:41:29.294Z,17.30
2022-12-24T03:46:38.882Z,11.10
2022-12-24T03:51:48.845Z,22.90
2022-12-24T03:56:58.695Z,18.10
2022-12-24T04:02:08.553Z,13.50
2022-12-24T04:07:18.374Z,13.20
2022-12-24T04:12:28.000Z,9.80
2022-12-24T04:17:37.795Z,15.90
2022-12-24T04:22:48.111Z,12.90
2022-12-24T04:27:57.689Z,11.80
2022-12-24T04:33:07.458Z,18.00
2022-12-24T04:38:17.252Z,15.50
2022-12-24T04:43:27.096Z,23.80
2022-12-24T04:48:36.867Z,19.60
2022-12-24T04:53:46.848Z,19.60
2022-12-24T04:58:57.062Z,18.10
2022-12-24T05:04:07.147Z,26.90
2022-12-24T05:09:17.004Z,20.10
2022-12-24T05:14:26.610Z,39.20
2022-12-24T05:19:36.348Z,33.30
2022-12-24T05:25:03.276Z,34.20
2022-12-24T05:30:15.430Z,28.40
2022-12-24T05:35:24.961Z,44.40
2022-12-24T05:40:34.752Z,29.60
2022-12-24T05:45:44.492Z,33.10
2022-12-24T05:50:54.178Z,39.30
2022-12-24T05:56:11.397Z,27.40
2022-12-24T06:01:22.144Z,23.20
2022-12-24T06:06:33.018Z,16.90
2022-12-24T06:11:42.869Z,15.80
2022-12-24T06:16:52.630Z,19.90
2022-12-24T06:22:02.215Z,17.20
2022-12-24T06:27:11.728Z,18.00
2022-12-24T06:32:21.459Z,32.00
2022-12-24T06:37:31.130Z,35.30
2022-12-24T06:42:40.846Z,48.70
2022-12-24T06:47:50.352Z,41.20
2022-12-24T06:52:59.899Z,48.30
2022-12-24T06:58:09.906Z,39.40
2022-12-24T07:03:19.614Z,33.10
2022-12-24T07:08:29.672Z,30.80
2022-12-24T07:13:39.245Z,31.00
2022-12-24T07:18:48.852Z,24.50
2022-12-24T07:23:58.447Z,23.70
2022-12-24T07:29:08.381Z,32.20
2022-12-24T07:34:18.407Z,31.20
2022-12-24T07:39:28.092Z,36.80
2022-12-24T07:44:38.071Z,42.40
2022-12-24T07:49:47.819Z,25.90
2022-12-24T07:54:57.461Z,26.70
2022-12-24T08:00:08.867Z,19.20
2022-12-24T08:05:18.746Z,29.60
2022-12-24T08:10:28.317Z,23.70
2022-12-24T08:15:38.196Z,24.50
2022-12-24T08:20:47.829Z,38.50
2022-12-24T08:25:57.658Z,38.00
2022-12-24T08:31:08.121Z,34.60
2022-12-24T08:36:18.112Z,36.70
2022-12-24T08:41:27.727Z,41.60
2022-12-24T08:46:38.221Z,31.40
2022-12-24T08:51:49.297Z,34.20
2022-12-24T08:56:59.161Z,59.30
2022-12-24T09:02:10.300Z,129.90
2022-12-24T09:07:20.217Z,118.20
2022-12-24T09:12:30.009Z,69.40
2022-12-24T09:17:39.702Z,60.90
2022-12-24T09:22:49.394Z,70.90
2022-12-24T09:27:59.012Z,70.70
2022-12-24T09:33:08.908Z,113.70
2022-12-24T09:38:18.608Z,80.40
2022-12-24T09:43:32.856Z,121.00
2022-12-24T09:48:48.463Z,82.10
2022-12-24T09:54:05.877Z,54.40
2022-12-24T09:59:22.114Z,45.90
2022-12-24T10:04:35.038Z,43.60
2022-12-24T10:10:00.583Z,40.30
2022-12-24T10:15:23.791Z,39.40
2022-12-24T10:20:46.929Z,29.20
2022-12-24T10:26:10.559Z,32.70
2022-12-24T10:31:27.269Z,25.20
2022-12-24T10:36:37.557Z,40.40
2022-12-24T10:41:48.100Z,30.90
2022-12-24T10:46:58.044Z,25.00
2022-12-24T10:52:16.023Z,15.90
2022-12-24T10:57:31.392Z,13.40
2022-12-24T11:02:43.334Z,9.80
2022-12-24T11:08:06.223Z,11.50
2022-12-24T11:13:39.062Z,12.60
2022-12-24T11:18:54.630Z,10.00
2022-12-24T11:24:10.164Z,12.00
2022-12-24T11:29:25.347Z,12.40
2022-12-24T11:34:35.729Z,8.70
2022-12-24T11:39:49.676Z,12.20
2022-12-24T11:45:01.521Z,12.80
2022-12-24T11:50:36.862Z,23.20
2022-12-24T11:55:53.218Z,18.30
2022-12-24T12:01:15.989Z,66.60
2022-12-24T12:06:39.238Z,102.70
2022-12-24T12:11:53.922Z,49.30
2022-12-24T12:17:15.804Z,23.00
2022-12-24T12:22:40.199Z,17.20
2022-12-24T12:27:54.815Z,15.30
2022-12-24T12:33:14.723Z,11.40
2022-12-24T12:38:29.584Z,16.20
2022-12-24T12:44:12.451Z,12.30
2022-12-24T12:49:42.943Z,16.20
2022-12-24T12:55:24.414Z,11.00
2022-12-24T13:00:42.747Z,9.50
2022-12-24T13:06:35.423Z,9.20
2022-12-24T13:12:10.225Z,8.30
2022-12-24T13:17:54.211Z,10.40
2022-12-24T13:23:13.389Z,16.40
2022-12-24T13:28:38.972Z,18.70
2022-12-24T13:33:57.741Z,28.20
2022-12-24T13:39:07.655Z,16.20
2022-12-24T13:44:36.366Z,15.30
2022-12-24T13:49:49.636Z,14.30
2022-12-24T13:55:20.217Z,11.40
2022-12-24T14:00:44.517Z,14.20
2022-12-24T14:06:01.634Z,12.10
2022-12-24T14:11:18.011Z,12.70
2022-12-24T14:16:32.231Z,9.20
2022-12-24T14:21:51.408Z,19.70
2022-12-24T14:27:08.393Z,8.40
2022-12-24T14:32:21.080Z,14.30
2022-12-24T14:37:34.637Z,18.80
2022-12-24T14:42:54.991Z,17.00
2022-12-24T14:48:19.016Z,17.10
2022-12-24T14:53:49.643Z,19.80
2022-12-24T14:59:04.984Z,14.70
2022-12-24T15:04:22.374Z,13.60
2022-12-24T15:09:38.084Z,22.60
2022-12-24T15:14:49.293Z,16.50
2022-12-24T15:19:59.539Z,16.50
2022-12-24T15:25:23.382Z,12.30
2022-12-24T15:30:34.517Z,14.20
2022-12-24T15:35:56.992Z,17.20
2022-12-24T15:41:16.877Z,16.50
2022-12-24T15:46:30.332Z,19.10
2022-12-24T15:51:41.447Z,20.10
2022-12-24T15:56:51.535Z,16.80
2022-12-24T16:02:29.895Z,13.80
2022-12-24T16:08:05.919Z,14.60
2022-12-24T16:13:22.662Z,18.40
2022-12-24T16:18:36.539Z,13.30
2022-12-24T16:23:54.251Z,13.30
2022-12-24T16:29:04.294Z,10.20
2022-12-24T16:34:18.910Z,12.20
2022-12-24T16:39:33.956Z,12.00
2022-12-24T16:44:43.731Z,13.30
2022-12-24T16:49:53.925Z,13.60
2022-12-24T16:55:04.306Z,13.30
2022-12-24T17:00:25.869Z,11.60
2022-12-24T17:05:38.745Z,9.40
2022-12-24T17:10:55.422Z,13.00
2022-12-24T17:16:06.274Z,13.10
2022-12-24T17:21:15.950Z,11.50
2022-12-24T17:26:25.856Z,8.60
2022-12-24T17:31:38.498Z,12.90
2022-12-24T17:36:48.209Z,6.90
2022-12-24T17:41:58.617Z,11.00
2022-12-24T17:47:09.068Z,11.40
2022-12-24T17:52:19.030Z,14.30
2022-12-24T17:57:29.042Z,6.70
2022-12-24T18:02:39.734Z,7.20
2022-12-24T18:07:49.700Z,8.00
2022-12-24T18:12:59.564Z,8.80
2022-12-24T18:18:11.252Z,9.00
2022-12-24T18:23:21.129Z,9.10
2022-12-24T18:28:30.910Z,6.80
2022-12-24T18:33:41.462Z,6.90
2022-12-24T18:38:51.801Z,8.00
2022-12-24T18:44:02.716Z,10.30
2022-12-24T18:49:13.193Z,6.90
2022-12-24T18:54:22.879Z,6.90
2022-12-24T18:59:33.016Z,6.80
2022-12-24T19:04:42.959Z,9.60
2022-12-24T19:09:53.163Z,8.60
2022-12-24T19:15:02.934Z,9.10
2022-12-24T19:20:15.303Z,8.00
2022-12-24T19:25:25.368Z,5.00
2022-12-24T19:30:35.213Z,4.40
2022-12-24T19:35:45.138Z,8.80
2022-12-24T19:40:55.252Z,8.10
2022-12-24T19:46:05.249Z,6.90
2022-12-24T19:51:16.115Z,7.10
2022-12-24T19:56:28.523Z,8.60
2022-12-24T20:01:39.656Z,16.40
2022-12-24T20:06:51.293Z,22.60
2022-12-24T20:12:05.022Z,9.10
2022-12-24T20:17:15.271Z,8.80
2022-12-24T20:22:24.977Z,4.80
2022-12-24T20:27:34.643Z,5.90
2022-12-24T20:32:44.511Z,5.50
2022-12-24T20:37:54.332Z,4.90
2022-12-24T20:43:04.014Z,8.10
2022-12-24T20:48:13.773Z,6.00
2022-12-24T20:53:23.661Z,7.00
2022-12-24T20:58:33.754Z,7.80
2022-12-24T21:03:43.552Z,6.80
2022-12-24T21:08:55.105Z,7.00
2022-12-24T21:14:04.950Z,6.20
2022-12-24T21:19:21.380Z,8.60
2022-12-24T21:24:31.111Z,7.50
2022-12-24T21:29:40.856Z,6.00
2022-12-24T21:34:50.440Z,8.10
2022-12-24T21:40:00.222Z,7.70
2022-12-24T21:45:14.128Z,7.10
2022-12-24T21:50:41.990Z,6.70
2022-12-24T21:55:52.663Z,9.20
2022-12-24T22:01:10.180Z,9.70
2022-12-24T22:06:33.899Z,2.50
2022-12-24T22:11:54.347Z,10.30
2022-12-24T22:17:04.816Z,9.10
2022-12-24T22:22:14.664Z,9.10
2022-12-24T22:27:24.989Z,13.10
2022-12-24T22:32:35.868Z,10.30
2022-12-24T22:37:45.533Z,12.10
2022-12-24T22:42:55.283Z,9.60
2022-12-24T22:48:05.246Z,11.90
2022-12-24T22:53:14.938Z,10.40
2022-12-24T22:58:24.605Z,9.10
2022-12-24T23:03:35.371Z,10.50
2022-12-24T23:08:45.308Z,13.10
2022-12-24T23:14:12.548Z,14.40
2022-12-24T23:19:22.236Z,11.50
2022-12-24T23:24:32.775Z,14.90
2022-12-24T23:29:42.478Z,12.90
2022-12-24T23:34:52.322Z,10.40
2022-12-24T23:40:02.155Z,20.30
2022-12-24T23:45:13.638Z,9.10
2022-12-24T23:50:23.860Z,13.60
2022-12-24T23:55:33.523Z,13.50
